Time;durP1;ratioP1;P1;durP2;ratioP2;P2;SDS_P1;SDS_P2;PMS_P1;PMS_P2;Temp;Humidity;BMP_temperature;BMP_pressure;BME280_temperature;BME280_humidity;BME280_pressure;Samples;Min_cycle;Max_cycle;Signal;HPM_P1;HPM_P2
2023/07/03 00:01:30;;;;;;;16.85;6.35;;;;;;;;;;5041167;28;20021;-75
2023/07/03 00:03:57;;;;;;;16.27;5.72;;;;;;;;;;5047042;28;20119;-74
2023/07/03 00:06:23;;;;;;;19.15;5.97;;;;;;;;;;5032127;28;20013;-74
2023/07/03 00:08:50;;;;;;;18.33;6.20;;;;;;;;;;5032272;28;20025;-74
2023/07/03 00:11:16;;;;;;;19.23;6.32;;;;;;;;;;5032197;28;20372;-74
2023/07/03 00:13:41;;;;;;;21.55;6.88;;;;;;;;;;5031901;28;20025;-74
2023/07/03 00:16:08;;;;;;;20.25;6.57;;;;;;;;;;5032673;28;20378;-74
2023/07/03 00:18:34;;;;;;;18.80;6.10;;;;;;;;;;5032161;28;20418;-75
2023/07/03 00:21:00;;;;;;;20.30;6.60;;;;;;;;;;5032030;28;20029;-74
2023/07/03 00:23:26;;;;;;;19.45;6.22;;;;;;;;;;5031837;28;20442;-75
2023/07/03 00:25:52;;;;;;;20.58;6.68;;;;;;;;;;5031951;28;20021;-75
2023/07/03 00:28:19;;;;;;;19.05;5.95;;;;;;;;;;5032202;28;20053;-75
2023/07/03 00:30:45;;;;;;;22.17;6.32;;;;;;;;;;5032025;28;20344;-74
2023/07/03 00:33:11;;;;;;;22.55;6.78;;;;;;;;;;5031673;28;20440;-75
2023/07/03 00:35:38;;;;;;;20.05;6.00;;;;;;;;;;5031817;28;20395;-75
2023/07/03 00:38:03;;;;;;;20.65;6.78;;;;;;;;;;5032266;28;20032;-75
2023/07/03 00:40:30;;;;;;;21.10;7.18;;;;;;;;;;5032151;28;20029;-74
2023/07/03 00:42:56;;;;;;;18.95;6.18;;;;;;;;;;5031756;28;20021;-75
2023/07/03 00:45:22;;;;;;;17.45;6.38;;;;;;;;;;5031738;28;20067;-74
2023/07/03 00:47:49;;;;;;;27.08;6.82;;;;;;;;;;5030550;28;20025;-75
2023/07/03 00:50:15;;;;;;;18.50;6.90;;;;;;;;;;5031500;28;20466;-74
2023/07/03 00:52:41;;;;;;;20.23;6.90;;;;;;;;;;5031310;28;20096;-73
2023/07/03 00:55:10;;;;;;;26.52;7.05;;;;;;;;;;5031939;28;20087;-74
2023/07/03 00:57:36;;;;;;;19.48;6.80;;;;;;;;;;5031647;28;20017;-74
2023/07/03 01:00:06;;;;;;;26.85;7.30;;;;;;;;;;5031747;28;20038;-73
2023/07/03 01:02:36;;;;;;;28.38;7.85;;;;;;;;;;5031331;28;20024;-74
2023/07/03 01:05:05;;;;;;;24.17;6.97;;;;;;;;;;5031712;28;20026;-74
2023/07/03 01:07:32;;;;;;;18.67;6.43;;;;;;;;;;5031649;28;20030;-74
2023/07/03 01:10:00;;;;;;;22.77;6.82;;;;;;;;;;5031720;28;20040;-73
2023/07/03 01:12:29;;;;;;;24.35;5.88;;;;;;;;;;5029719;28;20060;-75
2023/07/03 01:14:58;;;;;;;25.42;6.90;;;;;;;;;;5031562;28;20380;-73
2023/07/03 01:17:25;;;;;;;18.42;6.25;;;;;;;;;;5031540;28;20026;-74
2023/07/03 01:19:52;;;;;;;27.35;6.50;;;;;;;;;;5031721;28;20352;-73
2023/07/03 01:22:37;;;;;;;28.63;6.97;;;;;;;;;;5030061;28;20116;-74
2023/07/03 01:25:08;;;;;;;18.20;6.88;;;;;;;;;;5031832;28;20077;-73
2023/07/03 01:27:35;;;;;;;24.50;7.32;;;;;;;;;;5031724;28;20498;-74
2023/07/03 01:30:02;;;;;;;19.52;6.25;;;;;;;;;;5031340;28;20096;-74
2023/07/03 01:32:30;;;;;;;20.13;6.45;;;;;;;;;;5030302;28;20022;-74
2023/07/03 01:34:56;;;;;;;19.70;6.38;;;;;;;;;;5031123;28;20116;-73
2023/07/03 01:37:27;;;;;;;24.45;7.93;;;;;;;;;;5031230;28;20054;-74
2023/07/03 01:39:54;;;;;;;23.88;6.95;;;;;;;;;;5031255;28;20025;-74
2023/07/03 01:42:21;;;;;;;20.33;6.97;;;;;;;;;;5030849;28;20538;-74
2023/07/03 01:44:47;;;;;;;20.40;6.80;;;;;;;;;;5031159;28;20104;-74
2023/07/03 01:47:14;;;;;;;24.30;6.65;;;;;;;;;;5031200;28;20045;-73
2023/07/03 01:49:40;;;;;;;24.15;7.72;;;;;;;;;;5031075;28;20033;-73
2023/07/03 01:52:09;;;;;;;24.13;6.32;;;;;;;;;;5030851;28;20037;-73
2023/07/03 01:54:49;;;;;;;27.70;7.60;;;;;;;;;;5031240;28;20033;-75
2023/07/03 01:57:19;;;;;;;32.47;7.75;;;;;;;;;;5031373;28;20032;-73
2023/07/03 01:59:46;;;;;;;28.23;7.10;;;;;;;;;;5031070;28;20041;-74
2023/07/03 02:02:15;;;;;;;22.33;6.50;;;;;;;;;;5033370;28;20491;-74
2023/07/03 02:04:57;;;;;;;35.67;7.38;;;;;;;;;;5035071;28;20021;-73
2023/07/03 02:07:23;;;;;;;22.15;6.82;;;;;;;;;;5035211;28;20028;-73
2023/07/03 02:09:50;;;;;;;25.27;7.28;;;;;;;;;;5034846;28;20025;-74
2023/07/03 02:12:16;;;;;;;20.80;6.35;;;;;;;;;;5034130;28;20030;-74
2023/07/03 02:14:41;;;;;;;22.00;6.90;;;;;;;;;;5035268;28;20168;-74
2023/07/03 02:17:07;;;;;;;24.77;7.50;;;;;;;;;;5032261;28;20064;-74
2023/07/03 02:19:34;;;;;;;19.42;6.97;;;;;;;;;;5034310;28;20025;-75
2023/07/03 02:22:00;;;;;;;20.10;7.32;;;;;;;;;;5033732;28;20045;-74
2023/07/03 02:24:27;;;;;;;26.88;7.13;;;;;;;;;;5034585;28;20021;-74
2023/07/03 02:26:53;;;;;;;22.85;6.80;;;;;;;;;;5034226;28;20079;-74
2023/07/03 02:29:19;;;;;;;23.20;7.75;;;;;;;;;;5034149;28;20391;-74
2023/07/03 02:31:45;;;;;;;24.10;7.47;;;;;;;;;;5033592;28;20044;-74
2023/07/03 02:34:12;;;;;;;23.35;7.47;;;;;;;;;;5033952;28;20025;-74
2023/07/03 02:36:38;;;;;;;26.45;7.95;;;;;;;;;;5034053;28;20083;-75
2023/07/03 02:39:05;;;;;;;27.90;7.20;;;;;;;;;;5033922;28;20097;-74
2023/07/03 02:41:31;;;;;;;22.10;7.90;;;;;;;;;;5033867;28;20060;-74
2023/07/03 02:43:57;;;;;;;32.25;7.97;;;;;;;;;;5033113;28;20034;-75
2023/07/03 02:46:23;;;;;;;27.63;7.32;;;;;;;;;;5033975;28;20029;-74
2023/07/03 02:48:49;;;;;;;22.27;7.38;;;;;;;;;;5033803;28;20434;-74
2023/07/03 02:51:15;;;;;;;26.65;7.35;;;;;;;;;;5033742;28;20026;-74
2023/07/03 02:53:42;;;;;;;19.10;6.97;;;;;;;;;;5033013;28;20030;-74
2023/07/03 02:56:08;;;;;;;25.88;7.53;;;;;;;;;;5033649;28;20029;-74
2023/07/03 02:58:34;;;;;;;24.42;7.20;;;;;;;;;;5020135;28;20080;-73
2023/07/03 03:01:01;;;;;;;23.85;6.97;;;;;;;;;;5013820;28;20442;-72
2023/07/03 03:03:27;;;;;;;27.33;8.02;;;;;;;;;;5013175;28;20040;-74
2023/07/03 03:05:55;;;;;;;31.02;7.65;;;;;;;;;;5013844;28;20452;-73
2023/07/03 03:08:21;;;;;;;27.85;8.05;;;;;;;;;;5014263;28;20033;-74
2023/07/03 03:10:47;;;;;;;25.55;7.82;;;;;;;;;;5013504;28;20033;-74
2023/07/03 03:13:14;;;;;;;20.52;7.40;;;;;;;;;;5014181;28;20030;-74
2023/07/03 03:15:40;;;;;;;27.58;8.32;;;;;;;;;;5013910;28;20392;-74
2023/07/03 03:18:06;;;;;;;25.27;7.47;;;;;;;;;;5013812;28;20121;-75
2023/07/03 03:20:32;;;;;;;30.17;7.78;;;;;;;;;;5013450;28;20045;-74
2023/07/03 03:22:59;;;;;;;23.15;7.05;;;;;;;;;;5012923;28;20034;-74
2023/07/03 03:25:25;;;;;;;25.77;7.38;;;;;;;;;;5013217;28;20030;-73
2023/07/03 03:27:51;;;;;;;29.38;7.75;;;;;;;;;;5013352;28;20029;-76
2023/07/03 03:30:17;;;;;;;31.08;8.63;;;;;;;;;;5013209;28;20029;-75
2023/07/03 03:32:43;;;;;;;34.42;7.35;;;;;;;;;;5012849;28;20522;-75
2023/07/03 03:35:09;;;;;;;29.88;7.90;;;;;;;;;;5013834;28;20033;-74
2023/07/03 03:37:35;;;;;;;28.17;7.82;;;;;;;;;;5013929;28;20383;-75
2023/07/03 03:40:02;;;;;;;26.38;8.27;;;;;;;;;;5014047;28;20029;-74
2023/07/03 03:42:28;;;;;;;25.55;7.03;;;;;;;;;;5014100;28;20056;-74
2023/07/03 03:44:54;;;;;;;24.88;7.82;;;;;;;;;;5013774;28;20029;-74
2023/07/03 03:47:21;;;;;;;23.48;7.45;;;;;;;;;;5012686;28;20057;-74
2023/07/03 03:49:47;;;;;;;24.10;7.63;;;;;;;;;;5013133;28;20440;-74
2023/07/03 03:52:13;;;;;;;34.05;8.32;;;;;;;;;;5012720;28;20026;-74
2023/07/03 03:54:39;;;;;;;25.63;7.47;;;;;;;;;;5012930;28;20483;-74
2023/07/03 03:57:05;;;;;;;28.20;7.57;;;;;;;;;;5013010;28;20029;-73
2023/07/03 03:59:31;;;;;;;28.33;11.07;;;;;;;;;;5012598;28;20026;-75
2023/07/03 04:01:57;;;;;;;21.52;7.22;;;;;;;;;;5013033;28;20156;-74
2023/07/03 04:04:23;;;;;;;31.92;8.63;;;;;;;;;;5012552;28;20109;-74
2023/07/03 04:06:51;;;;;;;26.55;7.72;;;;;;;;;;5012550;28;20496;-75
2023/07/03 04:09:17;;;;;;;33.92;8.48;;;;;;;;;;5012911;28;20044;-74
2023/07/03 04:11:42;;;;;;;31.15;7.97;;;;;;;;;;5012324;28;20476;-74
2023/07/03 04:14:08;;;;;;;30.88;7.68;;;;;;;;;;5012394;28;20037;-74
2023/07/03 04:16:35;;;;;;;23.25;7.00;;;;;;;;;;5012554;28;20104;-75
2023/07/03 04:19:01;;;;;;;31.52;7.90;;;;;;;;;;5012328;28;20057;-74
2023/07/03 04:21:27;;;;;;;31.75;8.10;;;;;;;;;;5012439;28;20026;-74
2023/07/03 04:23:53;;;;;;;32.67;7.90;;;;;;;;;;5011575;28;20431;-75
2023/07/03 04:26:20;;;;;;;27.40;7.90;;;;;;;;;;5013056;28;20026;-75
2023/07/03 04:28:46;;;;;;;24.20;7.32;;;;;;;;;;5013048;28;20022;-74
2023/07/03 04:31:12;;;;;;;30.90;8.00;;;;;;;;;;5012574;28;20022;-73
2023/07/03 04:33:38;;;;;;;30.60;8.48;;;;;;;;;;5012510;28;20109;-74
2023/07/03 04:36:04;;;;;;;29.67;7.63;;;;;;;;;;5013327;28;20025;-75
2023/07/03 04:38:30;;;;;;;31.02;7.50;;;;;;;;;;5013137;28;20022;-74
2023/07/03 04:40:56;;;;;;;28.15;7.43;;;;;;;;;;5012612;28;20076;-75
2023/07/03 04:43:24;;;;;;;35.75;7.63;;;;;;;;;;5012102;28;20096;-74
2023/07/03 04:45:51;;;;;;;38.85;7.70;;;;;;;;;;5012520;28;20026;-75
2023/07/03 04:48:18;;;;;;;29.42;7.45;;;;;;;;;;5041126;28;20067;-76
2023/07/03 04:50:46;;;;;;;28.55;7.28;;;;;;;;;;5044696;28;20028;-75
2023/07/03 04:53:12;;;;;;;33.92;8.30;;;;;;;;;;5037640;28;20050;-75
2023/07/03 04:55:38;;;;;;;38.47;7.93;;;;;;;;;;5043285;28;20037;-75
2023/07/03 04:58:05;;;;;;;31.25;8.13;;;;;;;;;;5051156;28;20037;-74
2023/07/03 05:00:31;;;;;;;34.67;7.93;;;;;;;;;;5051131;28;20036;-74
2023/07/03 05:02:58;;;;;;;36.17;7.13;;;;;;;;;;5051240;28;20494;-75
2023/07/03 05:05:25;;;;;;;34.80;8.27;;;;;;;;;;5051513;28;20017;-75
2023/07/03 05:07:51;;;;;;;25.25;6.60;;;;;;;;;;5051028;28;20025;-75
2023/07/03 05:10:18;;;;;;;28.75;8.32;;;;;;;;;;5051229;28;20397;-75
2023/07/03 05:12:44;;;;;;;37.90;8.07;;;;;;;;;;5051284;28;20029;-73
2023/07/03 05:15:11;;;;;;;31.77;7.85;;;;;;;;;;5051723;28;20033;-74
2023/07/03 05:17:38;;;;;;;35.60;8.82;;;;;;;;;;5053684;28;20036;-73
2023/07/03 05:20:08;;;;;;;32.05;7.25;;;;;;;;;;5055196;28;20144;-75
2023/07/03 05:22:35;;;;;;;32.20;8.38;;;;;;;;;;5038164;28;20093;-74
2023/07/03 05:25:01;;;;;;;31.98;7.72;;;;;;;;;;5041593;28;20029;-75
2023/07/03 05:27:27;;;;;;;37.17;8.30;;;;;;;;;;5033770;28;20076;-75
2023/07/03 05:29:53;;;;;;;21.92;7.35;;;;;;;;;;5038547;28;20539;-75
2023/07/03 05:32:19;;;;;;;29.60;7.85;;;;;;;;;;5036881;28;20033;-73
2023/07/03 05:34:45;;;;;;;23.85;7.07;;;;;;;;;;5047258;28;20113;-72
2023/07/03 05:37:11;;;;;;;28.00;7.80;;;;;;;;;;5043754;28;20025;-72
2023/07/03 05:39:37;;;;;;;35.30;8.25;;;;;;;;;;5039446;28;20127;-74
2023/07/03 05:42:03;;;;;;;31.10;7.60;;;;;;;;;;5045714;28;20183;-74
2023/07/03 05:44:29;;;;;;;35.63;7.82;;;;;;;;;;5046512;28;20391;-74
2023/07/03 05:46:55;;;;;;;36.92;7.90;;;;;;;;;;5052177;28;20021;-75
2023/07/03 05:49:21;;;;;;;32.75;7.32;;;;;;;;;;5040179;28;20022;-74
2023/07/03 05:51:47;;;;;;;31.73;8.13;;;;;;;;;;5035119;28;20033;-75
2023/07/03 05:54:14;;;;;;;28.48;7.28;;;;;;;;;;5043604;28;20040;-76
2023/07/03 05:56:42;;;;;;;26.63;6.75;;;;;;;;;;5044036;28;20113;-73
2023/07/03 05:59:08;;;;;;;35.65;7.30;;;;;;;;;;5034406;28;20103;-74
2023/07/03 06:01:34;;;;;;;26.10;7.25;;;;;;;;;;5046321;28;20371;-73
2023/07/03 06:04:02;;;;;;;26.15;7.10;;;;;;;;;;5038208;28;20065;-74
2023/07/03 06:06:28;;;;;;;34.65;7.35;;;;;;;;;;5041216;28;20105;-74
2023/07/03 06:08:54;;;;;;;37.65;7.65;;;;;;;;;;5036223;28;20146;-75
2023/07/03 06:11:20;;;;;;;31.88;6.80;;;;;;;;;;5043326;28;20029;-75
2023/07/03 06:13:46;;;;;;;30.00;5.97;;;;;;;;;;5054469;28;20032;-76
2023/07/03 06:16:12;;;;;;;26.67;6.30;;;;;;;;;;5055502;28;20092;-74
2023/07/03 06:18:38;;;;;;;26.80;6.38;;;;;;;;;;5043441;28;20029;-76
2023/07/03 06:21:04;;;;;;;30.60;6.35;;;;;;;;;;5037502;28;20021;-74
2023/07/03 06:23:30;;;;;;;28.52;6.75;;;;;;;;;;5035493;28;20033;-75
2023/07/03 06:25:56;;;;;;;29.70;5.88;;;;;;;;;;5037025;28;20105;-73
2023/07/03 06:28:22;;;;;;;33.67;6.03;;;;;;;;;;5034960;28;20021;-74
2023/07/03 06:30:49;;;;;;;27.58;5.82;;;;;;;;;;5032526;28;20025;-73
2023/07/03 06:33:15;;;;;;;34.42;5.95;;;;;;;;;;5033181;28;20029;-74
2023/07/03 06:35:41;;;;;;;34.03;6.80;;;;;;;;;;5033981;28;20093;-74
2023/07/03 06:38:07;;;;;;;36.50;5.65;;;;;;;;;;5033905;28;20552;-72
2023/07/03 06:40:33;;;;;;;32.03;6.15;;;;;;;;;;5033874;28;20037;-73
2023/07/03 06:42:59;;;;;;;23.73;5.40;;;;;;;;;;5033405;28;20029;-73
2023/07/03 06:45:25;;;;;;;26.77;5.75;;;;;;;;;;5033960;28;20021;-74
2023/07/03 06:47:51;;;;;;;22.77;6.03;;;;;;;;;;5033281;28;20537;-76
2023/07/03 06:50:17;;;;;;;31.00;5.88;;;;;;;;;;5033698;28;20105;-73
2023/07/03 06:52:45;;;;;;;35.65;6.45;;;;;;;;;;5032399;28;20032;-74
2023/07/03 06:55:11;;;;;;;22.48;4.72;;;;;;;;;;5033501;28;20025;-74
2023/07/03 06:57:37;;;;;;;24.35;6.35;;;;;;;;;;5033537;28;20030;-74
2023/07/03 07:00:05;;;;;;;29.25;5.32;;;;;;;;;;5033372;28;20052;-75
2023/07/03 07:02:31;;;;;;;27.77;4.97;;;;;;;;;;5033012;28;20053;-75
2023/07/03 07:04:57;;;;;;;25.23;5.07;;;;;;;;;;5033200;28;20030;-74
2023/07/03 07:07:23;;;;;;;24.52;4.88;;;;;;;;;;5033039;28;20378;-75
2023/07/03 07:09:49;;;;;;;24.73;5.18;;;;;;;;;;5033403;28;20026;-73
2023/07/03 07:12:15;;;;;;;25.75;4.97;;;;;;;;;;5032969;28;20064;-74
2023/07/03 07:14:41;;;;;;;20.85;5.38;;;;;;;;;;5033281;28;20057;-73
2023/07/03 07:17:07;;;;;;;21.50;4.82;;;;;;;;;;5033618;28;20032;-74
2023/07/03 07:19:33;;;;;;;23.20;5.05;;;;;;;;;;5033671;28;20041;-75
2023/07/03 07:21:59;;;;;;;29.63;4.53;;;;;;;;;;5032977;28;20022;-74
2023/07/03 07:24:27;;;;;;;29.63;4.68;;;;;;;;;;5033267;28;20467;-74
2023/07/03 07:26:54;;;;;;;22.17;4.75;;;;;;;;;;5033095;28;20036;-71
2023/07/03 07:29:21;;;;;;;25.13;5.05;;;;;;;;;;5033190;28;20022;-73
2023/07/03 07:31:47;;;;;;;21.85;4.97;;;;;;;;;;5033140;28;20045;-74
2023/07/03 07:34:13;;;;;;;20.38;4.68;;;;;;;;;;5033155;28;20033;-73
2023/07/03 07:36:39;;;;;;;25.95;4.43;;;;;;;;;;5032912;28;20032;-75
2023/07/03 07:39:05;;;;;;;20.67;4.22;;;;;;;;;;5025363;28;20030;-76
2023/07/03 07:41:31;;;;;;;21.40;5.40;;;;;;;;;;5013243;28;20096;-74
2023/07/03 07:43:58;;;;;;;29.83;4.63;;;;;;;;;;5011767;28;20021;-73
2023/07/03 07:46:28;;;;;;;22.20;4.32;;;;;;;;;;5013057;28;20105;-75
2023/07/03 07:48:54;;;;;;;25.15;5.25;;;;;;;;;;5013382;28;20010;-73
2023/07/03 07:51:20;;;;;;;21.13;4.32;;;;;;;;;;5014335;28;20026;-75
2023/07/03 07:53:46;;;;;;;29.17;5.20;;;;;;;;;;5012755;28;20430;-74
2023/07/03 07:56:13;;;;;;;22.48;3.95;;;;;;;;;;5013102;28;20030;-76
2023/07/03 07:58:39;;;;;;;24.50;4.80;;;;;;;;;;5012507;28;20030;-75
2023/07/03 08:01:06;;;;;;;20.60;3.85;;;;;;;;;;5014889;28;20160;-74
2023/07/03 08:03:32;;;;;;;23.02;3.60;;;;;;;;;;5012268;28;20057;-73
2023/07/03 08:05:59;;;;;;;19.52;3.30;;;;;;;;;;5013003;28;20029;-75
2023/07/03 08:08:26;;;;;;;25.60;4.00;;;;;;;;;;5012268;28;20456;-76
2023/07/03 08:10:55;;;;;;;22.17;4.07;;;;;;;;;;5013439;28;20022;-76
2023/07/03 08:13:21;;;;;;;20.42;4.00;;;;;;;;;;5013199;28;20032;-74
2023/07/03 08:15:48;;;;;;;21.45;4.40;;;;;;;;;;5014305;28;20109;-75
2023/07/03 08:18:15;;;;;;;23.52;4.00;;;;;;;;;;5013918;28;20057;-78
2023/07/03 08:20:41;;;;;;;17.55;3.70;;;;;;;;;;5013239;28;20030;-76
2023/07/03 08:23:07;;;;;;;22.00;3.72;;;;;;;;;;5025511;28;20040;-75
2023/07/03 08:25:34;;;;;;;18.02;3.55;;;;;;;;;;5043410;28;20021;-74
2023/07/03 08:28:00;;;;;;;14.77;2.97;;;;;;;;;;5040068;28;20076;-74
2023/07/03 08:30:25;;;;;;;18.88;3.17;;;;;;;;;;5012308;28;20030;-74
2023/07/03 08:32:51;;;;;;;22.75;3.50;;;;;;;;;;5011738;28;20435;-73
2023/07/03 08:35:17;;;;;;;17.73;2.97;;;;;;;;;;5012409;28;20029;-74
2023/07/03 08:37:44;;;;;;;22.48;3.25;;;;;;;;;;5012310;28;20030;-74
2023/07/03 08:40:11;;;;;;;19.17;3.17;;;;;;;;;;5012187;28;20033;-75
2023/07/03 08:42:41;;;;;;;28.20;4.15;;;;;;;;;;5011428;28;20057;-73
2023/07/03 08:45:10;;;;;;;19.52;3.30;;;;;;;;;;5012705;28;20414;-74
2023/07/03 08:47:36;;;;;;;24.90;3.72;;;;;;;;;;5012344;28;20029;-74
2023/07/03 08:50:03;;;;;;;18.38;4.28;;;;;;;;;;5012243;28;20025;-73
2023/07/03 08:52:44;;;;;;;24.35;3.60;;;;;;;;;;5026157;28;20037;-73
2023/07/03 08:55:12;;;;;;;14.02;2.60;;;;;;;;;;5031662;28;20030;-73
2023/07/03 08:57:39;;;;;;;19.98;3.33;;;;;;;;;;5030314;28;20030;-73
2023/07/03 09:00:11;;;;;;;20.95;2.72;;;;;;;;;;5011839;28;20083;-73
2023/07/03 09:02:56;;;;;;;18.10;3.25;;;;;;;;;;5011062;28;20087;-73
2023/07/03 09:05:21;;;;;;;;;;;;;;;;;;5012093;28;20030;-74
2023/07/03 09:07:50;;;;;;;17.58;4.03;;;;;;;;;;5010767;28;19916;-74
2023/07/03 09:10:19;;;;;;;17.80;3.65;;;;;;;;;;5010774;28;20033;-74
2023/07/03 09:12:49;;;;;;;19.75;3.58;;;;;;;;;;5009869;28;20026;-75
2023/07/03 09:15:21;;;;;;;13.35;2.90;;;;;;;;;;5011492;28;20227;-74
2023/07/03 09:17:47;;;;;;;10.80;2.50;;;;;;;;;;5012133;28;20129;-77
2023/07/03 09:20:14;;;;;;;11.90;2.50;;;;;;;;;;5011661;28;20030;-76
2023/07/03 09:22:50;;;;;;;17.13;2.97;;;;;;;;;;5011357;28;20022;-76
2023/07/03 09:25:20;;;;;;;14.73;3.17;;;;;;;;;;5011768;28;20026;-74
2023/07/03 09:27:47;;;;;;;13.43;2.13;;;;;;;;;;5011816;28;20033;-76
2023/07/03 09:30:14;;;;;;;13.60;2.60;;;;;;;;;;5011385;28;20069;-76
2023/07/03 09:32:40;;;;;;;12.63;2.40;;;;;;;;;;5011483;28;20048;-76
2023/07/03 09:35:20;;;;;;;16.80;2.35;;;;;;;;;;5012017;28;20105;-76
2023/07/03 09:37:48;;;;;;;16.30;2.70;;;;;;;;;;5011948;28;20030;-76
2023/07/03 09:40:16;;;;;;;9.93;1.60;;;;;;;;;;5012029;28;20397;-75
2023/07/03 09:42:42;;;;;;;12.15;2.13;;;;;;;;;;5009990;28;20049;-77
2023/07/03 09:45:16;;;;;;;12.65;2.42;;;;;;;;;;5011702;28;20029;-75
2023/07/03 09:47:47;;;;;;;9.43;2.05;;;;;;;;;;5011904;28;20029;-76
2023/07/03 09:50:13;;;;;;;11.27;2.70;;;;;;;;;;5011523;28;20096;-76
2023/07/03 09:52:45;;;;;;;11.25;2.30;;;;;;;;;;5011401;28;20108;-76
2023/07/03 09:55:11;;;;;;;7.80;2.03;;;;;;;;;;5011488;28;20096;-75
2023/07/03 09:57:38;;;;;;;10.10;2.47;;;;;;;;;;5023398;28;20037;-75
2023/07/03 10:00:14;;;;;;;13.15;3.13;;;;;;;;;;5031325;28;20029;-75
2023/07/03 10:02:41;;;;;;;6.40;1.85;;;;;;;;;;5030911;28;20022;-75
2023/07/03 10:05:07;;;;;;;11.38;2.50;;;;;;;;;;5031068;28;20022;-76
2023/07/03 10:07:39;;;;;;;12.35;2.85;;;;;;;;;;5031359;28;20471;-75
2023/07/03 10:10:07;;;;;;;13.02;2.50;;;;;;;;;;5031710;28;20537;-76
2023/07/03 10:12:37;;;;;;;10.10;2.10;;;;;;;;;;5030882;28;20029;-76
2023/07/03 10:15:07;;;;;;;17.15;2.92;;;;;;;;;;5031122;28;20430;-79
2023/07/03 10:17:34;;;;;;;11.50;1.80;;;;;;;;;;5032802;28;20025;-76
2023/07/03 10:20:03;;;;;;;20.13;9.20;;;;;;;;;;5031148;28;20102;-75
2023/07/03 10:22:29;;;;;;;19.63;3.33;;;;;;;;;;5032304;28;20014;-75
2023/07/03 10:25:00;;;;;;;12.40;2.53;;;;;;;;;;5035239;28;20048;-74
2023/07/03 10:27:28;;;;;;;13.10;2.63;;;;;;;;;;5034940;28;20014;-78
2023/07/03 10:29:54;;;;;;;17.02;2.60;;;;;;;;;;5034230;28;20029;-73
2023/07/03 10:32:24;;;;;;;10.80;1.80;;;;;;;;;;5026017;28;20029;-73
2023/07/03 10:35:11;;;;;;;9.38;2.17;;;;;;;;;;5034135;28;20029;-74
2023/07/03 10:37:40;;;;;;;12.15;1.58;;;;;;;;;;5033932;28;20300;-74
2023/07/03 10:40:15;;;;;;;6.68;2.67;;;;;;;;;;5033487;28;20030;-74
2023/07/03 10:42:41;;;;;;;;;;;;;;;;;;5032423;28;20041;-74
2023/07/03 10:45:10;;;;;;;10.60;2.10;;;;;;;;;;5033430;28;19920;-75
2023/07/03 10:47:46;;;;;;;10.20;2.28;;;;;;;;;;5033682;28;20317;-74
2023/07/03 10:50:13;;;;;;;8.30;2.40;;;;;;;;;;5031036;28;20026;-75
2023/07/03 10:52:48;;;;;;;6.68;1.75;;;;;;;;;;5032221;28;20154;-73
2023/07/03 10:55:28;;;;;;;5.45;1.90;;;;;;;;;;5031561;28;20021;-74
2023/07/03 10:58:10;;;;;;;10.93;1.98;;;;;;;;;;5033510;28;20368;-73
2023/07/03 11:00:47;;;;;;;9.02;3.08;;;;;;;;;;5032106;28;20025;-75
2023/07/03 11:03:26;;;;;;;7.28;2.70;;;;;;;;;;5032907;28;20570;-74
2023/07/03 11:05:57;;;;;;;9.82;1.80;;;;;;;;;;5033015;28;20030;-77
2023/07/03 11:08:36;;;;;;;8.48;2.53;;;;;;;;;;5031234;28;20438;-76
2023/07/03 11:11:02;;;;;;;6.50;1.52;;;;;;;;;;5032660;28;20040;-75
2023/07/03 11:13:28;;;;;;;11.85;2.30;;;;;;;;;;5031795;28;20033;-76
2023/07/03 11:16:13;;;;;;;7.63;2.05;;;;;;;;;;5032646;28;20053;-75
2023/07/03 11:19:00;;;;;;;8.05;1.92;;;;;;;;;;5030163;28;20037;-74
2023/07/03 11:21:47;;;;;;;5.55;1.60;;;;;;;;;;5033491;28;20222;-74
2023/07/03 11:24:38;;;;;;;10.45;2.22;;;;;;;;;;5029655;28;20148;-74
2023/07/03 11:27:10;;;;;;;10.50;2.30;;;;;;;;;;5033956;28;20366;-75
2023/07/03 11:29:37;;;;;;;8.95;2.10;;;;;;;;;;5033693;28;20509;-74
2023/07/03 11:32:05;;;;;;;7.43;1.40;;;;;;;;;;5032396;28;20136;-73
2023/07/03 11:34:32;;;;;;;13.15;1.85;;;;;;;;;;5033618;28;20081;-74
2023/07/03 11:36:58;;;;;;;15.60;2.70;;;;;;;;;;5033714;28;20029;-75
2023/07/03 11:39:27;;;;;;;15.95;2.35;;;;;;;;;;5031684;28;20398;-76
2023/07/03 11:42:10;;;;;;;8.07;2.15;;;;;;;;;;5033283;28;20014;-75
2023/07/03 11:44:39;;;;;;;8.90;2.15;;;;;;;;;;5035739;28;20025;-74
2023/07/03 11:47:09;;;;;;;9.52;2.28;;;;;;;;;;5032733;28;20021;-73
2023/07/03 11:49:37;;;;;;;11.85;2.42;;;;;;;;;;5032189;28;20028;-76
2023/07/03 11:52:04;;;;;;;18.08;3.67;;;;;;;;;;5032220;28;20037;-74
2023/07/03 11:54:36;;;;;;;11.77;3.05;;;;;;;;;;5033145;28;20112;-75
2023/07/03 11:57:27;;;;;;;10.52;2.45;;;;;;;;;;5033226;28;20597;-74
2023/07/03 11:59:54;;;;;;;8.60;2.15;;;;;;;;;;5033192;28;20041;-73
2023/07/03 12:02:20;;;;;;;10.13;2.33;;;;;;;;;;5033105;28;20017;-74
2023/07/03 12:04:45;;;;;;;8.85;2.13;;;;;;;;;;5031297;28;20037;-76
2023/07/03 12:07:17;;;;;;;9.65;2.35;;;;;;;;;;5032354;28;20176;-75
2023/07/03 12:09:43;;;;;;;10.20;2.45;;;;;;;;;;5028461;28;20075;-76
2023/07/03 12:12:20;;;;;;;6.18;1.58;;;;;;;;;;5032092;28;20063;-76
2023/07/03 12:14:56;;;;;;;5.47;1.33;;;;;;;;;;5034089;28;20135;-74
2023/07/03 12:17:24;;;;;;;7.88;2.80;;;;;;;;;;5034276;28;20368;-76
2023/07/03 12:19:53;;;;;;;6.82;1.35;;;;;;;;;;5034564;28;20536;-77
2023/07/03 12:22:20;;;;;;;4.80;1.40;;;;;;;;;;5033850;28;20213;-75
2023/07/03 12:24:46;;;;;;;13.32;2.28;;;;;;;;;;5034232;28;20029;-76
2023/07/03 12:27:14;;;;;;;4.57;1.27;;;;;;;;;;5034005;28;20026;-76
2023/07/03 12:29:50;;;;;;;7.20;2.65;;;;;;;;;;5035695;28;20025;-79
2023/07/03 12:32:43;;;;;;;5.53;1.95;;;;;;;;;;5033207;28;20025;-78
2023/07/03 12:35:10;;;;;;;5.88;1.40;;;;;;;;;;5027939;28;20029;-81
2023/07/03 12:37:40;;;;;;;9.70;1.58;;;;;;;;;;5033834;28;20026;-78
2023/07/03 12:40:10;;;;;;;4.93;1.35;;;;;;;;;;5033200;28;20053;-77
2023/07/03 12:42:36;;;;;;;8.85;3.22;;;;;;;;;;5032528;28;20042;-75
2023/07/03 12:45:13;;;;;;;9.52;1.70;;;;;;;;;;5033096;28;20603;-78
2023/07/03 12:47:40;;;;;;;8.20;1.42;;;;;;;;;;5033110;28;20052;-76
2023/07/03 12:50:07;;;;;;;11.48;1.55;;;;;;;;;;5039739;28;20030;-75
2023/07/03 12:52:35;;;;;;;7.38;1.77;;;;;;;;;;5039973;28;20022;-75
2023/07/03 12:55:02;;;;;;;9.82;1.77;;;;;;;;;;5040472;28;20033;-74
2023/07/03 12:57:30;;;;;;;4.95;1.25;;;;;;;;;;5037433;28;20567;-75
2023/07/03 12:59:57;;;;;;;7.68;1.55;;;;;;;;;;5038156;28;20047;-75
2023/07/03 13:02:24;;;;;;;6.88;2.20;;;;;;;;;;5039915;28;20032;-75
2023/07/03 13:04:56;;;;;;;9.35;2.50;;;;;;;;;;5044370;28;20064;-74
2023/07/03 13:07:22;;;;;;;12.90;4.32;;;;;;;;;;5039590;28;20076;-75
2023/07/03 13:09:48;;;;;;;10.30;2.70;;;;;;;;;;5040847;28;20056;-76
2023/07/03 13:12:21;;;;;;;10.13;2.00;;;;;;;;;;5045167;28;20033;-76
2023/07/03 13:15:06;;;;;;;17.20;4.97;;;;;;;;;;5043121;28;20067;-74
2023/07/03 13:17:33;;;;;;;6.57;1.77;;;;;;;;;;5043092;28;20059;-75
2023/07/03 13:20:24;;;;;;;9.25;1.65;;;;;;;;;;5042472;28;20029;-75
2023/07/03 13:23:01;;;;;;;21.80;10.25;;;;;;;;;;5040818;28;20063;-75
2023/07/03 13:25:30;;;;;;;9.55;2.92;;;;;;;;;;5038612;28;20041;-75
2023/07/03 13:27:57;;;;;;;10.25;2.10;;;;;;;;;;5040954;28;20100;-75
2023/07/03 13:30:25;;;;;;;7.97;2.33;;;;;;;;;;5046175;28;20025;-75
2023/07/03 13:32:56;;;;;;;17.98;3.33;;;;;;;;;;5030906;28;20577;-76
2023/07/03 13:35:27;;;;;;;6.28;1.92;;;;;;;;;;5045747;28;20352;-74
2023/07/03 13:37:53;;;;;;;9.60;1.75;;;;;;;;;;5044630;28;20379;-75
2023/07/03 13:40:19;;;;;;;7.25;1.55;;;;;;;;;;5042818;28;20032;-75
2023/07/03 13:42:55;;;;;;;10.55;1.92;;;;;;;;;;5041323;28;20029;-75
2023/07/03 13:45:22;;;;;;;7.82;2.05;;;;;;;;;;5041396;28;20443;-77
2023/07/03 13:47:47;;;;;;;8.05;1.80;;;;;;;;;;5036095;28;20030;-77
2023/07/03 13:50:13;;;;;;;10.30;3.80;;;;;;;;;;5040999;28;20129;-74
2023/07/03 13:52:39;;;;;;;9.20;2.00;;;;;;;;;;5037706;28;20025;-75
2023/07/03 13:55:07;;;;;;;7.30;1.60;;;;;;;;;;5043572;28;20491;-76
2023/07/03 13:57:33;;;;;;;8.82;1.60;;;;;;;;;;5030383;28;20030;-75
2023/07/03 13:59:59;;;;;;;4.57;1.27;;;;;;;;;;5046901;28;20114;-76
2023/07/03 14:02:25;;;;;;;10.88;3.50;;;;;;;;;;5054881;28;20021;-76
2023/07/03 14:04:51;;;;;;;7.88;2.17;;;;;;;;;;5055119;28;20025;-76
2023/07/03 14:07:17;;;;;;;15.40;1.77;;;;;;;;;;5055866;28;20071;-76
2023/07/03 14:09:43;;;;;;;6.78;1.77;;;;;;;;;;5057471;28;20333;-76
2023/07/03 14:12:09;;;;;;;7.55;1.55;;;;;;;;;;5056531;28;20069;-77
2023/07/03 14:14:35;;;;;;;10.15;1.73;;;;;;;;;;5057274;28;20036;-76
2023/07/03 14:17:01;;;;;;;6.80;1.50;;;;;;;;;;5055896;28;20431;-75
2023/07/03 14:19:27;;;;;;;9.05;1.75;;;;;;;;;;5055066;28;20065;-75
2023/07/03 14:21:53;;;;;;;3.85;1.25;;;;;;;;;;5053661;28;20017;-74
2023/07/03 14:24:19;;;;;;;10.60;2.88;;;;;;;;;;5055038;28;20512;-76
2023/07/03 14:26:45;;;;;;;7.47;1.67;;;;;;;;;;5055333;28;20101;-75
2023/07/03 14:29:11;;;;;;;7.13;1.88;;;;;;;;;;5055076;28;20091;-75
2023/07/03 14:31:37;;;;;;;11.35;1.70;;;;;;;;;;5054894;28;20028;-75
2023/07/03 14:34:03;;;;;;;5.13;1.58;;;;;;;;;;5054143;28;20029;-74
2023/07/03 14:36:29;;;;;;;6.05;1.83;;;;;;;;;;5054677;28;20108;-74
2023/07/03 14:38:55;;;;;;;10.93;2.38;;;;;;;;;;5058412;28;20056;-75